Time;durP1;ratioP1;P1;durP2;ratioP2;P2;SDS_P1;SDS_P2;PMS_P1;PMS_P2;Temp;Humidity;BMP_temperature;BMP_pressure;BME280_temperature;BME280_humidity;BME280_pressure;Samples;Min_cycle;Max_cycle;Signal;HPM_P1;HPM_P2
2024/01/06 00:02:09;;;;;;;6.23;6.13;;;20.60;53.80;;;;;;5025444;28;20480;-63
2024/01/06 00:04:38;;;;;;;6.20;6.10;;;20.60;53.80;;;;;;5026028;28;20559;-63
2024/01/06 00:07:04;;;;;;;6.00;5.90;;;20.50;53.80;;;;;;5024478;28;20473;-63
2024/01/06 00:09:31;;;;;;;5.63;5.53;;;20.60;54.00;;;;;;5020757;28;20475;-62
2024/01/06 00:11:58;;;;;;;5.73;5.63;;;20.50;53.90;;;;;;5024885;28;20477;-63
2024/01/06 00:14:25;;;;;;;5.87;5.77;;;20.50;53.90;;;;;;5022688;28;20536;-63
2024/01/06 00:16:52;;;;;;;6.10;5.90;;;20.50;53.90;;;;;;5023158;28;20481;-63
2024/01/06 00:19:19;;;;;;;5.80;5.70;;;20.50;54.00;;;;;;5026096;28;20469;-63
2024/01/06 00:21:47;;;;;;;6.00;5.90;;;20.50;54.00;;;;;;5026567;28;20570;-63
2024/01/06 00:24:14;;;;;;;6.00;5.90;;;20.50;54.00;;;;;;5023186;28;20509;-64
2024/01/06 00:26:42;;;;;;;6.30;6.20;;;20.50;54.10;;;;;;5021067;28;20497;-63
2024/01/06 00:29:08;;;;;;;5.80;5.70;;;20.50;54.10;;;;;;5032475;28;20477;-64
2024/01/06 00:31:35;;;;;;;5.80;5.70;;;20.50;54.10;;;;;;5022568;28;20472;-63
2024/01/06 00:34:03;;;;;;;6.23;5.90;;;20.50;54.20;;;;;;5023686;28;20478;-63
2024/01/06 00:36:30;;;;;;;5.90;5.80;;;20.40;54.20;;;;;;5025017;28;20457;-63
2024/01/06 00:38:58;;;;;;;5.83;5.70;;;20.40;54.20;;;;;;5024812;28;20480;-63
2024/01/06 00:41:25;;;;;;;6.67;6.37;;;20.40;54.20;;;;;;5022091;28;20956;-63
2024/01/06 00:43:52;;;;;;;5.80;5.70;;;20.40;54.20;;;;;;5022112;28;20822;-63
2024/01/06 00:46:19;;;;;;;6.10;6.00;;;20.40;54.30;;;;;;5024922;28;20917;-63
2024/01/06 00:48:46;;;;;;;5.97;5.80;;;20.40;54.30;;;;;;5025577;28;20476;-63
2024/01/06 00:51:12;;;;;;;6.43;6.20;;;20.40;54.30;;;;;;5022435;28;20478;-63
2024/01/06 00:53:39;;;;;;;6.20;6.00;;;20.40;54.30;;;;;;5021993;28;20478;-63
2024/01/06 00:56:08;;;;;;;5.90;5.77;;;20.30;54.30;;;;;;5023092;28;20486;-63
2024/01/06 00:58:34;;;;;;;6.10;6.00;;;20.30;54.30;;;;;;5025306;28;20964;-63
2024/01/06 01:01:01;;;;;;;6.30;6.10;;;20.30;54.30;;;;;;5023781;28;20966;-63
2024/01/06 01:03:28;;;;;;;6.23;6.03;;;20.30;54.40;;;;;;5021788;28;20954;-63
2024/01/06 01:05:55;;;;;;;5.93;5.83;;;20.30;54.40;;;;;;5021224;28;20975;-63
2024/01/06 01:08:22;;;;;;;6.47;6.33;;;20.30;54.40;;;;;;5025040;28;20951;-63
2024/01/06 01:10:49;;;;;;;6.20;6.10;;;20.30;54.40;;;;;;5024976;28;20480;-63
2024/01/06 01:13:17;;;;;;;5.87;5.77;;;20.30;54.50;;;;;;5021855;28;20470;-63
2024/01/06 01:15:44;;;;;;;5.90;5.80;;;20.30;54.50;;;;;;5019739;28;20500;-63
2024/01/06 01:18:11;;;;;;;6.40;6.30;;;20.30;54.50;;;;;;5022415;28;20441;-63
2024/01/06 01:20:37;;;;;;;7.33;7.23;;;20.30;54.50;;;;;;5021320;28;20485;-63
2024/01/06 01:23:04;;;;;;;6.43;6.23;;;20.30;54.50;;;;;;5022940;28;20942;-63
2024/01/06 01:25:31;;;;;;;6.10;6.00;;;20.30;54.60;;;;;;5024133;28;20523;-62
2024/01/06 01:27:58;;;;;;;6.53;6.43;;;20.30;54.60;;;;;;5023954;28;20476;-62
2024/01/06 01:30:27;;;;;;;6.50;6.30;;;20.30;54.60;;;;;;5021011;28;20470;-62
2024/01/06 01:32:54;;;;;;;6.20;6.10;;;20.30;54.60;;;;;;5021234;28;20809;-63
2024/01/06 01:35:21;;;;;;;6.57;6.47;;;20.30;54.60;;;;;;5023941;28;20481;-62
2024/01/06 01:37:48;;;;;;;6.10;6.00;;;20.30;54.60;;;;;;5024504;28;20475;-62
2024/01/06 01:40:14;;;;;;;7.07;6.87;;;20.30;54.70;;;;;;5024785;28;20484;-63
2024/01/06 01:42:43;;;;;;;6.57;6.47;;;20.30;54.70;;;;;;5025184;28;20572;-63
2024/01/06 01:45:10;;;;;;;6.00;5.87;;;20.30;54.70;;;;;;5022286;28;20517;-63
2024/01/06 01:47:39;;;;;;;6.67;6.47;;;20.20;54.70;;;;;;5021387;28;20469;-63
2024/01/06 01:50:07;;;;;;;6.40;6.30;;;20.30;54.80;;;;;;5029653;28;20877;-63
2024/01/06 01:52:35;;;;;;;6.13;6.03;;;20.20;54.70;;;;;;5021418;28;20469;-63
2024/01/06 01:55:02;;;;;;;6.30;6.20;;;20.30;54.90;;;;;;5021475;28;20504;-63
2024/01/06 01:57:29;;;;;;;6.43;6.33;;;20.20;54.80;;;;;;5020230;28;20481;-63
2024/01/06 01:59:57;;;;;;;6.07;5.90;;;20.20;54.90;;;;;;5021301;28;20474;-63
2024/01/06 02:02:24;;;;;;;6.53;6.43;;;20.20;54.90;;;;;;5024558;28;20465;-63
2024/01/06 02:04:52;;;;;;;6.20;6.00;;;20.20;54.90;;;;;;5026015;28;20518;-63
2024/01/06 02:07:19;;;;;;;6.13;5.93;;;20.20;54.90;;;;;;5013179;28;20476;-63
2024/01/06 02:09:46;;;;;;;6.30;6.20;;;20.20;55.00;;;;;;5013359;28;21015;-63
2024/01/06 02:12:13;;;;;;;6.67;6.57;;;20.20;55.00;;;;;;5013153;28;20497;-63
2024/01/06 02:14:41;;;;;;;6.23;6.13;;;20.20;55.00;;;;;;5011095;28;20525;-63
2024/01/06 02:17:08;;;;;;;6.47;6.27;;;20.20;55.00;;;;;;5013198;28;20452;-63
2024/01/06 02:19:35;;;;;;;6.27;6.07;;;20.20;55.00;;;;;;5013182;28;20486;-63
2024/01/06 02:22:03;;;;;;;6.83;6.73;;;20.20;55.10;;;;;;5012912;28;20474;-63
2024/01/06 02:24:30;;;;;;;6.30;6.10;;;20.20;55.20;;;;;;4999711;28;20578;-63
2024/01/06 02:26:57;;;;;;;6.00;5.90;;;20.20;55.30;;;;;;4993293;28;20542;-63
2024/01/06 02:29:24;;;;;;;6.10;6.00;;;20.20;55.30;;;;;;4993061;28;20485;-63
2024/01/06 02:31:51;;;;;;;7.37;7.17;;;20.20;55.30;;;;;;5000787;28;20485;-63
2024/01/06 02:34:18;;;;;;;6.40;6.30;;;20.20;55.30;;;;;;5012703;28;20477;-63
2024/01/06 02:36:44;;;;;;;7.30;7.20;;;20.20;55.30;;;;;;5012952;28;20502;-63
2024/01/06 02:39:13;;;;;;;7.10;7.00;;;20.20;55.30;;;;;;5012831;28;20474;-63
2024/01/06 02:41:40;;;;;;;6.60;6.50;;;20.20;55.40;;;;;;5007144;28;20471;-63
2024/01/06 02:44:08;;;;;;;7.27;6.97;;;20.20;55.40;;;;;;4992239;28;20474;-63
2024/01/06 02:46:35;;;;;;;6.23;6.13;;;20.20;55.50;;;;;;5002588;28;20536;-63
2024/01/06 02:49:02;;;;;;;6.30;6.20;;;20.20;55.50;;;;;;5012766;28;20497;-63
2024/01/06 02:51:29;;;;;;;6.00;5.90;;;20.20;55.60;;;;;;5008529;28;20443;-63
2024/01/06 02:53:56;;;;;;;6.70;6.50;;;20.20;55.60;;;;;;4992954;28;20867;-63
2024/01/06 02:56:24;;;;;;;5.97;5.87;;;20.20;55.60;;;;;;4992521;28;20994;-63
2024/01/06 02:58:51;;;;;;;6.50;6.40;;;20.20;55.60;;;;;;4992956;28;20471;-64
2024/01/06 03:01:18;;;;;;;5.93;5.73;;;20.20;55.60;;;;;;4994588;28;20478;-63
2024/01/06 03:03:45;;;;;;;6.10;5.90;;;20.20;55.60;;;;;;5012392;28;20469;-63
2024/01/06 03:06:12;;;;;;;6.30;6.20;;;20.20;55.60;;;;;;5012256;28;20529;-63
2024/01/06 03:08:39;;;;;;;6.37;6.27;;;20.20;55.60;;;;;;5012499;28;20525;-63
2024/01/06 03:11:06;;;;;;;6.37;6.27;;;20.20;55.60;;;;;;5012102;28;20469;-63
2024/01/06 03:13:34;;;;;;;6.30;6.20;;;20.10;55.60;;;;;;4992647;28;20443;-63
2024/01/06 03:16:04;;;;;;;6.60;6.50;;;20.20;55.60;;;;;;4995820;28;20466;-63
2024/01/06 03:18:31;;;;;;;6.70;6.50;;;20.20;55.60;;;;;;5012689;28;20434;-63
2024/01/06 03:20:58;;;;;;;6.70;6.60;;;20.20;55.70;;;;;;5012310;28;20477;-63
2024/01/06 03:23:25;;;;;;;6.70;6.57;;;20.20;55.70;;;;;;4993609;28;20482;-64
2024/01/06 03:25:52;;;;;;;6.77;6.67;;;20.20;55.60;;;;;;4992012;28;21088;-62
2024/01/06 03:28:19;;;;;;;6.90;6.50;;;20.20;55.60;;;;;;4992219;28;20451;-61
2024/01/06 03:30:47;;;;;;;5.83;5.73;;;20.20;55.60;;;;;;4992015;28;20490;-63
2024/01/06 03:33:14;;;;;;;6.33;6.23;;;20.20;55.60;;;;;;5008620;28;20473;-63
2024/01/06 03:35:40;;;;;;;6.20;6.10;;;20.10;55.60;;;;;;5011510;28;20489;-63
2024/01/06 03:38:07;;;;;;;7.07;6.93;;;20.10;55.60;;;;;;5011853;28;20489;-62
2024/01/06 03:40:34;;;;;;;7.47;7.17;;;20.20;55.70;;;;;;5011530;28;20453;-62
2024/01/06 03:43:01;;;;;;;6.70;6.50;;;20.20;55.80;;;;;;4996496;28;20521;-63
2024/01/06 03:45:28;;;;;;;7.27;7.07;;;20.10;55.70;;;;;;4991757;28;20594;-63
2024/01/06 03:47:56;;;;;;;6.07;5.97;;;20.20;55.80;;;;;;4992115;28;20487;-63
2024/01/06 03:50:23;;;;;;;6.13;6.03;;;20.20;55.90;;;;;;4991884;28;20518;-62
2024/01/06 03:52:50;;;;;;;5.80;5.70;;;20.20;55.90;;;;;;5004444;28;20474;-62
2024/01/06 03:55:17;;;;;;;6.53;6.43;;;20.20;55.90;;;;;;5014422;28;20541;-61
2024/01/06 03:57:44;;;;;;;6.30;6.20;;;20.20;55.80;;;;;;5015264;28;20452;-61
2024/01/06 04:00:11;;;;;;;6.93;6.83;;;20.20;55.90;;;;;;5015053;28;20875;-63
2024/01/06 04:02:38;;;;;;;6.40;6.30;;;20.10;55.80;;;;;;5003555;28;20443;-62
2024/01/06 04:05:07;;;;;;;6.40;6.30;;;20.10;55.80;;;;;;4995118;28;20501;-62
2024/01/06 04:07:34;;;;;;;7.57;7.33;;;20.20;55.90;;;;;;4995354;28;20462;-62
2024/01/06 04:10:01;;;;;;;6.50;6.40;;;20.20;55.90;;;;;;4995154;28;20483;-63
2024/01/06 04:12:27;;;;;;;6.83;6.73;;;20.20;55.80;;;;;;4995327;28;20482;-63
2024/01/06 04:17:30;;;;;;;6.97;6.77;;;20.10;55.90;;;;;;5017554;28;20481;-66
2024/01/06 04:19:57;;;;;;;7.30;7.10;;;20.10;55.90;;;;;;5022882;28;20501;-65
2024/01/06 04:22:25;;;;;;;7.00;6.80;;;20.10;55.90;;;;;;5025558;28;20461;-66
2024/01/06 04:24:52;;;;;;;7.83;7.63;;;20.10;55.90;;;;;;5025940;28;20472;-67
2024/01/06 04:27:19;;;;;;;7.00;6.80;;;20.10;55.90;;;;;;5023069;28;20921;-65
2024/01/06 04:29:46;;;;;;;6.70;6.50;;;20.10;55.80;;;;;;5020267;28;20857;-66
2024/01/06 04:32:13;;;;;;;7.17;6.97;;;20.10;55.80;;;;;;5023999;28;20473;-66
2024/01/06 04:34:39;;;;;;;6.33;6.23;;;20.10;55.80;;;;;;5022321;28;20489;-65
2024/01/06 04:37:06;;;;;;;7.07;6.97;;;20.10;55.80;;;;;;5022830;28;20516;-65
2024/01/06 04:39:35;;;;;;;6.63;6.53;;;20.10;55.80;;;;;;5024925;28;20874;-65
2024/01/06 04:42:02;;;;;;;6.77;6.63;;;20.10;55.80;;;;;;5025324;28;20872;-65
2024/01/06 04:44:29;;;;;;;7.13;6.97;;;20.10;55.80;;;;;;5022245;28;20875;-66
2024/01/06 04:46:55;;;;;;;6.77;6.67;;;20.10;55.80;;;;;;5021929;28;20920;-65
2024/01/06 04:49:22;;;;;;;6.90;6.70;;;20.20;55.90;;;;;;5020063;28;20819;-65
2024/01/06 04:51:49;;;;;;;6.90;6.70;;;20.10;55.80;;;;;;5025259;28;20473;-66
2024/01/06 04:54:16;;;;;;;6.83;6.63;;;20.10;55.80;;;;;;5023476;28;20473;-65
2024/01/06 04:56:44;;;;;;;6.80;6.67;;;20.10;55.70;;;;;;5021808;28;20501;-66
2024/01/06 04:59:11;;;;;;;6.90;6.80;;;20.10;55.60;;;;;;5015244;28;20479;-65
2024/01/06 05:01:38;;;;;;;6.93;6.83;;;20.10;55.50;;;;;;5025103;28;20473;-65
2024/01/06 05:04:05;;;;;;;7.30;7.10;;;20.10;55.50;;;;;;5024720;28;20944;-65
2024/01/06 05:06:32;;;;;;;6.97;6.77;;;20.10;55.50;;;;;;5020862;28;20554;-64
2024/01/06 05:08:59;;;;;;;6.63;6.53;;;20.10;55.50;;;;;;5014662;28;20845;-65
2024/01/06 05:11:26;;;;;;;6.77;6.67;;;20.10;55.50;;;;;;5024512;28;20877;-65
2024/01/06 05:13:54;;;;;;;7.20;7.10;;;20.10;55.60;;;;;;5025151;28;20861;-66
2024/01/06 05:16:21;;;;;;;6.63;6.53;;;20.10;55.70;;;;;;5022109;28;20504;-66
2024/01/06 05:18:48;;;;;;;6.60;6.50;;;20.10;55.50;;;;;;5015986;28;20542;-65
2024/01/06 05:21:15;;;;;;;6.80;6.70;;;20.10;55.50;;;;;;5021186;28;20481;-66
2024/01/06 05:23:41;;;;;;;7.13;6.93;;;20.10;55.40;;;;;;5024981;28;20484;-66
2024/01/06 05:26:09;;;;;;;6.80;6.70;;;20.10;55.40;;;;;;5023688;28;20510;-66
2024/01/06 05:28:36;;;;;;;6.80;6.70;;;20.20;55.50;;;;;;5017663;28;20447;-66
2024/01/06 05:31:04;;;;;;;6.43;6.23;;;20.10;55.40;;;;;;5017935;28;21142;-67
2024/01/06 05:33:31;;;;;;;7.13;6.93;;;20.10;55.40;;;;;;5013639;28;20497;-66
2024/01/06 05:35:58;;;;;;;6.40;6.30;;;20.20;55.40;;;;;;5021173;28;20494;-66
2024/01/06 05:38:25;;;;;;;6.60;6.40;;;20.20;55.30;;;;;;5023777;28;20473;-65
2024/01/06 05:40:52;;;;;;;6.80;6.63;;;20.10;55.20;;;;;;5020907;28;20466;-65
2024/01/06 05:43:19;;;;;;;6.50;6.40;;;20.10;55.20;;;;;;5022938;28;20480;-65
2024/01/06 05:45:45;;;;;;;7.53;7.27;;;20.10;55.20;;;;;;5024151;28;20499;-66
2024/01/06 05:48:14;;;;;;;6.90;6.70;;;20.10;55.20;;;;;;5018542;28;20477;-65
2024/01/06 05:50:41;;;;;;;6.70;6.30;;;20.10;55.20;;;;;;5020896;28;20482;-64
2024/01/06 05:53:09;;;;;;;6.27;6.17;;;20.10;55.20;;;;;;5021319;28;20441;-65
2024/01/06 05:55:35;;;;;;;6.70;6.50;;;20.10;55.20;;;;;;5024096;28;20556;-65
2024/01/06 05:58:02;;;;;;;7.40;7.30;;;20.10;55.10;;;;;;5020014;28;21019;-66
2024/01/06 06:00:31;;;;;;;7.07;6.87;;;20.10;55.20;;;;;;5012633;28;20478;-65
2024/01/06 06:02:58;;;;;;;6.00;5.90;;;20.10;55.10;;;;;;5020681;28;20446;-66
2024/01/06 06:05:27;;;;;;;6.50;6.13;;;20.10;55.20;;;;;;5023201;28;20461;-64
2024/01/06 06:07:54;;;;;;;6.10;5.90;;;20.10;55.10;;;;;;5019929;28;20483;-66
2024/01/06 06:10:21;;;;;;;6.50;6.20;;;20.10;55.10;;;;;;5021768;28;20480;-65
2024/01/06 06:12:48;;;;;;;6.10;6.00;;;20.10;55.10;;;;;;5020613;28;20786;-66
2024/01/06 06:15:15;;;;;;;5.80;5.70;;;20.10;55.00;;;;;;5021499;28;20496;-65
2024/01/06 06:17:42;;;;;;;6.10;6.00;;;20.10;55.00;;;;;;5017299;28;20502;-65
2024/01/06 06:20:09;;;;;;;6.17;6.07;;;20.10;55.00;;;;;;5021026;28;20794;-65
2024/01/06 06:22:38;;;;;;;6.00;5.90;;;20.10;54.90;;;;;;5019597;28;20470;-65
2024/01/06 06:25:05;;;;;;;6.20;6.10;;;20.10;55.00;;;;;;5018660;28;20464;-65
2024/01/06 06:27:32;;;;;;;6.13;6.03;;;20.10;55.00;;;;;;5016175;28;20505;-65
2024/01/06 06:29:59;;;;;;;5.97;5.87;;;20.10;55.00;;;;;;5024847;28;20470;-65
2024/01/06 06:32:26;;;;;;;6.30;6.10;;;20.10;54.90;;;;;;5014954;28;20469;-65
2024/01/06 06:34:53;;;;;;;5.83;5.73;;;20.10;55.00;;;;;;5023658;28;20473;-65
2024/01/06 06:37:20;;;;;;;6.37;6.27;;;20.10;55.00;;;;;;5021851;28;20486;-65
2024/01/06 06:39:48;;;;;;;6.40;6.30;;;20.10;54.90;;;;;;5023507;28;20527;-65
2024/01/06 06:42:15;;;;;;;7.50;7.00;;;20.10;54.90;;;;;;5022323;28;20465;-65
2024/01/06 06:44:42;;;;;;;7.20;7.10;;;20.10;54.90;;;;;;5005760;28;20485;-65
2024/01/06 06:47:08;;;;;;;7.10;7.00;;;20.10;54.90;;;;;;5019849;28;20509;-65
2024/01/06 06:49:35;;;;;;;6.70;6.40;;;20.10;54.90;;;;;;5020096;28;20489;-65
2024/01/06 06:52:03;;;;;;;6.20;6.10;;;20.10;54.90;;;;;;5019997;28;20473;-65
2024/01/06 06:54:30;;;;;;;6.53;6.33;;;20.10;54.80;;;;;;5022319;28;20448;-65
2024/01/06 06:56:59;;;;;;;6.63;6.53;;;20.10;54.80;;;;;;5023423;28;20469;-65
2024/01/06 06:59:25;;;;;;;6.90;6.70;;;20.20;54.90;;;;;;5023375;28;20442;-65
2024/01/06 07:01:52;;;;;;;7.00;6.80;;;20.20;55.30;;;;;;5023150;28;20983;-65
2024/01/06 07:04:19;;;;;;;6.22;6.13;;;20.20;55.90;;;;;;5008742;28;20854;-65
2024/01/06 07:06:49;;;;;;;7.13;6.93;;;20.20;56.30;;;;;;5013223;28;20250;-67
2024/01/06 07:09:18;;;;;;;6.60;6.40;;;20.30;57.30;;;;;;5020846;28;20480;-67
2024/01/06 07:11:45;;;;;;;8.47;7.47;;;20.40;58.30;;;;;;5023213;28;20449;-67
2024/01/06 07:14:16;;;;;;;6.80;6.60;;;20.40;58.70;;;;;;5013988;28;20479;-67
2024/01/06 07:16:43;;;;;;;6.93;6.63;;;20.40;58.60;;;;;;5023103;28;20500;-65
2024/01/06 07:19:11;;;;;;;7.00;6.67;;;20.50;58.50;;;;;;5022283;28;20469;-65
2024/01/06 07:21:38;;;;;;;6.90;6.70;;;20.50;58.40;;;;;;5019523;28;20955;-65
2024/01/06 07:24:06;;;;;;;6.90;6.60;;;20.40;58.30;;;;;;5017332;28;20473;-65
2024/01/06 07:26:33;;;;;;;6.80;6.60;;;20.40;58.50;;;;;;5011464;28;20502;-65
2024/01/06 07:28:59;;;;;;;6.67;6.40;;;20.50;58.30;;;;;;5020707;28;20473;-65
2024/01/06 07:31:28;;;;;;;7.40;7.10;;;20.50;58.10;;;;;;5031565;28;20473;-66
2024/01/06 07:33:54;;;;;;;6.50;6.30;;;20.40;57.90;;;;;;5021700;28;20475;-66
2024/01/06 07:36:22;;;;;;;7.00;6.70;;;20.50;55.70;;;;;;5024043;28;20501;-66
2024/01/06 07:38:49;;;;;;;6.33;6.13;;;20.50;56.70;;;;;;5026681;28;20444;-65
2024/01/06 07:41:16;;;;;;;7.10;6.90;;;20.50;56.80;;;;;;5025412;28;20480;-65
2024/01/06 07:43:43;;;;;;;6.30;6.00;;;20.50;57.10;;;;;;5023254;28;20473;-65
2024/01/06 07:46:10;;;;;;;7.10;6.90;;;20.40;57.10;;;;;;5021792;28;20496;-65
2024/01/06 07:48:38;;;;;;;7.13;6.93;;;20.40;57.20;;;;;;5026397;28;20476;-65
2024/01/06 07:51:05;;;;;;;6.90;6.70;;;20.40;57.30;;;;;;5026424;28;20503;-65
2024/01/06 07:53:33;;;;;;;8.10;7.90;;;20.50;57.30;;;;;;5018709;28;20464;-64
2024/01/06 07:56:00;;;;;;;7.90;7.50;;;20.40;57.20;;;;;;5026515;28;20468;-63
2024/01/06 07:58:27;;;;;;;7.27;7.17;;;20.40;57.20;;;;;;5023852;28;20468;-65
2024/01/06 08:00:54;;;;;;;6.80;6.70;;;20.40;57.20;;;;;;5022811;28;20477;-64
2024/01/06 08:03:21;;;;;;;7.20;7.10;;;20.40;57.30;;;;;;5023937;28;20476;-65
2024/01/06 08:05:49;;;;;;;7.60;7.30;;;20.50;57.80;;;;;;5026330;28;20484;-65
2024/01/06 08:08:18;;;;;;;7.30;7.20;;;20.50;58.10;;;;;;5025861;28;20560;-65
2024/01/06 08:10:45;;;;;;;7.87;7.67;;;20.50;58.30;;;;;;5025900;28;20441;-66
2024/01/06 08:13:12;;;;;;;7.80;7.60;;;20.50;58.30;;;;;;5018877;28;20474;-67
2024/01/06 08:15:40;;;;;;;7.57;7.23;;;20.60;58.20;;;;;;5025965;28;20472;-65
2024/01/06 08:18:07;;;;;;;8.13;7.20;;;20.60;58.00;;;;;;5026130;28;20482;-67
2024/01/06 08:20:34;;;;;;;6.90;6.80;;;20.70;58.10;;;;;;5022624;28;20469;-68
2024/01/06 08:23:02;;;;;;;7.43;7.23;;;20.60;58.10;;;;;;5018546;28;20469;-65
2024/01/06 08:25:29;;;;;;;7.23;7.03;;;20.60;58.10;;;;;;5024310;28;20496;-65
2024/01/06 08:27:56;;;;;;;7.77;7.50;;;20.60;58.00;;;;;;5025765;28;20515;-65
2024/01/06 08:30:23;;;;;;;7.20;7.00;;;20.60;57.80;;;;;;5023892;28;20449;-60
2024/01/06 08:32:50;;;;;;;7.80;7.40;;;20.70;58.20;;;;;;5011830;28;21127;-66
2024/01/06 08:35:17;;;;;;;7.23;7.03;;;20.70;58.00;;;;;;5022347;28;20469;-67
2024/01/06 08:37:44;;;;;;;6.50;6.10;;;20.80;57.80;;;;;;5021152;28;20474;-64
2024/01/06 08:40:13;;;;;;;7.47;7.23;;;20.80;57.60;;;;;;5017568;28;20245;-64
2024/01/06 08:42:40;;;;;;;9.23;8.93;;;21.00;57.20;;;;;;5022127;28;20470;-64
2024/01/06 08:45:07;;;;;;;7.50;7.30;;;21.10;56.80;;;;;;5014109;28;20474;-64
2024/01/06 08:47:34;;;;;;;7.70;7.50;;;21.20;56.50;;;;;;5025002;28;20500;-65
2024/01/06 08:50:01;;;;;;;8.30;7.90;;;21.20;56.20;;;;;;5020035;28;20473;-66
2024/01/06 08:52:28;;;;;;;7.83;7.63;;;21.30;56.20;;;;;;5014875;28;20474;-67
2024/01/06 08:54:55;;;;;;;7.90;7.50;;;21.30;55.50;;;;;;5013940;28;20478;-68
2024/01/06 08:57:23;;;;;;;9.77;9.47;;;21.40;55.40;;;;;;5010156;28;20482;-67
2024/01/06 08:59:50;;;;;;;8.90;8.70;;;21.40;55.30;;;;;;4994357;28;20482;-68
2024/01/06 09:02:16;;;;;;;7.97;7.77;;;21.40;55.20;;;;;;5006289;28;20469;-65
2024/01/06 09:04:43;;;;;;;8.23;7.90;;;21.40;55.50;;;;;;5013785;28;20488;-65
2024/01/06 09:07:10;;;;;;;7.43;7.30;;;21.40;55.30;;;;;;5013499;28;20568;-68
2024/01/06 09:09:37;;;;;;;8.20;7.90;;;21.40;55.90;;;;;;5013698;28;20477;-66
2024/01/06 09:12:05;;;;;;;8.67;8.03;;;21.50;56.60;;;;;;5002695;28;20475;-62
2024/01/06 09:14:33;;;;;;;8.73;8.33;;;21.40;56.20;;;;;;4994103;28;20486;-61
2024/01/06 09:17:00;;;;;;;8.00;7.80;;;21.40;56.10;;;;;;4993853;28;21016;-62
2024/01/06 09:19:28;;;;;;;7.63;7.43;;;21.40;56.10;;;;;;4993998;28;20475;-65
2024/01/06 09:21:55;;;;;;;8.73;8.53;;;21.40;56.10;;;;;;5002347;28;20446;-65
2024/01/06 09:24:22;;;;;;;9.47;8.93;;;21.40;56.00;;;;;;5013403;28;20813;-65
2024/01/06 09:26:50;;;;;;;9.57;9.00;;;21.30;54.10;;;;;;5013195;28;20494;-65
2024/01/06 09:29:17;;;;;;;8.70;8.20;;;21.30;54.30;;;;;;5013280;28;20449;-65
2024/01/06 09:31:45;;;;;;;9.20;8.60;;;21.20;55.50;;;;;;5006135;28;20439;-67
2024/01/06 09:34:12;;;;;;;9.77;9.47;;;21.30;56.10;;;;;;4993716;28;20855;-67
2024/01/06 09:36:39;;;;;;;11.10;9.63;;;21.40;56.60;;;;;;4993538;28;20463;-69
2024/01/06 09:39:07;;;;;;;9.57;9.20;;;21.40;57.20;;;;;;4993644;28;20481;-66
2024/01/06 09:41:35;;;;;;;8.50;8.10;;;21.40;57.10;;;;;;4994933;28;20919;-64
2024/01/06 09:44:02;;;;;;;9.43;8.87;;;21.50;57.10;;;;;;4993483;28;20866;-66
2024/01/06 09:46:30;;;;;;;9.20;8.90;;;21.50;56.40;;;;;;4993319;28;20495;-66
2024/01/06 09:48:59;;;;;;;7.77;7.57;;;21.40;56.20;;;;;;4993434;28;21158;-66
2024/01/06 09:51:27;;;;;;;9.70;9.30;;;21.40;56.10;;;;;;4996908;28;20446;-66
2024/01/06 09:53:59;;;;;;;8.70;8.50;;;21.40;56.00;;;;;;5012982;28;20808;-66
2024/01/06 09:56:26;;;;;;;9.33;9.00;;;21.40;56.00;;;;;;5012868;28;20995;-66
2024/01/06 09:58:54;;;;;;;9.13;8.73;;;21.40;56.00;;;;;;5012955;28;20442;-70
2024/01/06 10:01:21;;;;;;;8.93;8.63;;;21.40;56.20;;;;;;4995782;28;20471;-65
2024/01/06 10:03:48;;;;;;;8.90;8.67;;;21.40;56.20;;;;;;4993104;28;20470;-66
2024/01/06 10:06:17;;;;;;;9.10;8.80;;;21.40;56.10;;;;;;4993072;28;20498;-65
2024/01/06 10:08:44;;;;;;;8.93;8.53;;;21.40;55.90;;;;;;4993208;28;20479;-66
2024/01/06 10:11:11;;;;;;;8.70;8.50;;;21.40;55.80;;;;;;5007984;28;20470;-66
2024/01/06 10:13:39;;;;;;;8.70;8.40;;;21.40;55.70;;;;;;5012035;28;20472;-66
2024/01/06 10:16:06;;;;;;;9.23;8.93;;;21.40;56.00;;;;;;5030707;22;20495;-67
2024/01/06 10:18:35;;;;;;;9.33;8.83;;;21.50;55.80;;;;;;5032344;28;20468;-67
2024/01/06 10:21:05;;;;;;;9.00;8.60;;;21.40;55.70;;;;;;5031507;28;20998;-67
2024/01/06 10:23:34;;;;;;;8.50;8.30;;;21.40;55.70;;;;;;5032109;28;20452;-67
2024/01/06 10:26:01;;;;;;;8.13;7.73;;;21.40;55.70;;;;;;5032212;28;20487;-67
2024/01/06 10:28:28;;;;;;;8.77;8.30;;;21.40;55.70;;;;;;5032059;28;20490;-66
2024/01/06 10:30:56;;;;;;;8.67;8.47;;;21.40;55.80;;;;;;5019177;28;20446;-66
2024/01/06 10:33:23;;;;;;;8.37;8.17;;;21.40;55.70;;;;;;5028757;28;20449;-66
2024/01/06 10:35:51;;;;;;;8.50;8.30;;;21.40;55.70;;;;;;5031956;28;20964;-66
2024/01/06 10:38:18;;;;;;;9.33;9.03;;;21.40;55.70;;;;;;5031838;28;20437;-67
2024/01/06 10:40:59;;;;;;;10.20;9.80;;;21.40;55.70;;;;;;5020573;28;20876;-66
2024/01/06 10:43:27;;;;;;;8.60;8.40;;;21.40;55.60;;;;;;5012184;28;20844;-65
2024/01/06 10:45:57;;;;;;;9.27;8.97;;;21.40;55.70;;;;;;5012024;28;20458;-68
2024/01/06 10:48:26;;;;;;;8.40;8.20;;;21.40;55.80;;;;;;5011674;28;20508;-65
2024/01/06 10:50:54;;;;;;;8.80;8.60;;;21.40;55.60;;;;;;5023572;28;20479;-64
2024/01/06 10:53:23;;;;;;;8.93;8.53;;;21.40;55.50;;;;;;5031608;28;20916;-68
2024/01/06 10:55:52;;;;;;;9.40;8.80;;;21.40;55.30;;;;;;5031688;28;20437;-67
2024/01/06 10:58:20;;;;;;;8.53;8.33;;;21.40;55.30;;;;;;5031679;28;20441;-66
2024/01/06 11:00:48;;;;;;;9.00;8.70;;;21.40;55.30;;;;;;5030820;28;20460;-65
2024/01/06 11:03:15;;;;;;;9.67;9.37;;;21.40;55.30;;;;;;5031570;28;20437;-64
2024/01/06 11:05:43;;;;;;;9.30;9.10;;;21.40;55.30;;;;;;5035830;28;20436;-68
2024/01/06 11:08:11;;;;;;;8.00;7.70;;;21.40;55.20;;;;;;5032717;28;20988;-66
2024/01/06 11:10:40;;;;;;;9.07;8.77;;;21.40;55.20;;;;;;5015935;28;20470;-67
2024/01/06 11:13:09;;;;;;;8.33;8.13;;;21.40;55.10;;;;;;5015988;28;20513;-66
2024/01/06 11:15:46;;;;;;;8.20;8.00;;;21.40;55.00;;;;;;5015810;28;20449;-66
2024/01/06 11:18:38;;;;;;;8.60;8.40;;;21.40;55.00;;;;;;5018329;28;20453;-66
2024/01/06 11:21:25;;;;;;;8.40;8.20;;;21.40;55.00;;;;;;5030113;28;20453;-66
2024/01/06 11:24:24;;;;;;;9.03;8.73;;;21.40;55.00;;;;;;5035591;28;20448;-67
2024/01/06 11:26:52;;;;;;;8.70;8.50;;;21.40;55.00;;;;;;5035296;28;20471;-65
2024/01/06 11:29:21;;;;;;;8.80;8.60;;;21.40;55.00;;;;;;5023447;28;20564;-67
2024/01/06 11:32:27;;;;;;;8.87;8.57;;;21.40;55.00;;;;;;5015568;28;20489;-67
2024/01/06 11:34:58;;;;;;;8.90;8.63;;;21.30;54.80;;;;;;5010498;28;20446;-66
2024/01/06 11:37:26;;;;;;;9.50;8.90;;;21.30;54.80;;;;;;5015353;28;20841;-66
2024/01/06 11:39:54;;;;;;;9.43;8.97;;;21.30;54.70;;;;;;5015362;28;20477;-66
2024/01/06 11:42:21;;;;;;;8.90;8.50;;;21.30;54.80;;;;;;5015297;28;20450;-65
2024/01/06 11:44:52;;;;;;;8.90;8.70;;;21.40;55.10;;;;;;5015455;28;20448;-64
2024/01/06 11:47:23;;;;;;;8.70;8.40;;;21.40;55.20;;;;;;5015158;28;20466;-65
2024/01/06 11:49:57;;;;;;;9.47;8.93;;;21.40;55.00;;;;;;5029342;28;20429;-65
2024/01/06 11:52:25;;;;;;;9.30;9.00;;;21.40;54.90;;;;;;5035166;28;20479;-66
2024/01/06 11:54:54;;;;;;;7.47;7.10;;;21.30;55.00;;;;;;5034062;28;20433;-65
2024/01/06 11:57:21;;;;;;;8.90;8.50;;;21.30;55.20;;;;;;5034807;28;20226;-66
2024/01/06 11:59:49;;;;;;;8.77;8.47;;;21.40;55.20;;;;;;5021160;28;20477;-67
2024/01/06 12:02:19;;;;;;;7.43;7.20;;;21.40;55.10;;;;;;5013662;28;20881;-66
2024/01/06 12:04:50;;;;;;;8.93;8.70;;;21.40;55.20;;;;;;5015109;28;20222;-66
2024/01/06 12:07:19;;;;;;;9.17;8.87;;;21.50;55.20;;;;;;5015107;28;20468;-65
2024/01/06 12:09:47;;;;;;;7.97;7.77;;;21.50;55.20;;;;;;5027718;28;20487;-66
2024/01/06 12:12:16;;;;;;;8.60;8.20;;;21.50;55.20;;;;;;5034611;28;20531;-65
2024/01/06 12:14:43;;;;;;;8.17;7.97;;;21.40;55.30;;;;;;5034866;28;20468;-65
2024/01/06 12:17:11;;;;;;;9.23;8.90;;;21.40;55.40;;;;;;5028961;28;20493;-64
2024/01/06 12:19:38;;;;;;;9.23;8.90;;;21.40;55.40;;;;;;5014916;28;20473;-65
2024/01/06 12:22:05;;;;;;;8.87;8.57;;;21.30;55.40;;;;;;5014653;28;20469;-65
2024/01/06 12:24:34;;;;;;;9.30;8.80;;;21.40;55.40;;;;;;5014922;28;20921;-63
2024/01/06 12:27:01;;;;;;;9.60;9.10;;;21.30;55.40;;;;;;5018294;28;20480;-64
2024/01/06 12:29:29;;;;;;;9.33;9.10;;;21.30;55.50;;;;;;5034758;28;20524;-64
2024/01/06 12:32:00;;;;;;;9.70;9.40;;;21.30;55.50;;;;;;5034297;28;20525;-67
2024/01/06 12:34:27;;;;;;;9.07;8.77;;;21.30;55.80;;;;;;5034562;28;20956;-67
2024/01/06 12:36:55;;;;;;;8.27;7.97;;;21.30;56.00;;;;;;5032805;28;20488;-65
2024/01/06 12:39:23;;;;;;;8.30;8.10;;;21.40;55.70;;;;;;5034475;28;20433;-64
2024/01/06 12:41:53;;;;;;;8.60;8.40;;;21.40;55.70;;;;;;5034232;28;20447;-64
2024/01/06 12:44:19;;;;;;;9.87;9.40;;;21.30;56.10;;;;;;5034537;28;20515;-64
2024/01/06 12:46:47;;;;;;;9.07;8.67;;;21.30;55.80;;;;;;5018992;28;20904;-64
2024/01/06 12:49:13;;;;;;;8.80;8.50;;;21.30;55.60;;;;;;5014222;28;20540;-64
2024/01/06 12:51:40;;;;;;;9.83;9.53;;;21.30;55.90;;;;;;5014451;28;20508;-64
2024/01/06 12:54:07;;;;;;;9.60;9.10;;;21.30;56.60;;;;;;5014223;28;20480;-66